Time;durP1;ratioP1;P1;durP2;ratioP2;P2;SDS_P1;SDS_P2;PMS_P1;PMS_P2;Temp;Humidity;BMP_temperature;BMP_pressure;BME280_temperature;BME280_humidity;BME280_pressure;Samples;Min_cycle;Max_cycle;Signal;HPM_P1;HPM_P2
2022/10/16 00:01:51;;;;;;;10.32;6.55;;;14.60;99.90;;;;;;4985756;28;20588;-75
2022/10/16 00:04:17;;;;;;;12.05;7.03;;;14.60;99.90;;;;;;5020100;28;20104;-73
2022/10/16 00:06:43;;;;;;;8.45;5.43;;;14.60;99.90;;;;;;5013026;28;20072;-76
2022/10/16 00:09:08;;;;;;;8.02;6.05;;;14.50;99.90;;;;;;5015699;28;20627;-75
2022/10/16 00:11:37;;;;;;;7.75;5.68;;;14.50;99.90;;;;;;5010481;28;20029;-76
2022/10/16 00:14:05;;;;;;;6.28;5.28;;;14.50;99.90;;;;;;5025665;28;20112;-75
2022/10/16 00:16:31;;;;;;;6.78;4.97;;;14.50;99.90;;;;;;5028813;28;20493;-74
2022/10/16 00:18:58;;;;;;;8.02;4.78;;;14.50;99.90;;;;;;5030662;28;20033;-74
2022/10/16 00:21:26;;;;;;;6.95;4.65;;;14.50;99.90;;;;;;5022930;28;20065;-75
2022/10/16 00:23:55;;;;;;;8.30;4.25;;;14.50;99.90;;;;;;5012631;28;20036;-75
2022/10/16 00:26:21;;;;;;;4.68;4.05;;;14.50;99.90;;;;;;5012901;28;20679;-76
2022/10/16 00:28:49;;;;;;;7.47;3.80;;;14.50;99.90;;;;;;5032528;28;20064;-75
2022/10/16 00:31:17;;;;;;;6.28;4.13;;;14.50;99.90;;;;;;5009289;28;20465;-75
2022/10/16 00:33:43;;;;;;;6.65;3.47;;;14.50;99.90;;;;;;5027678;28;20078;-75
2022/10/16 00:36:12;;;;;;;5.97;3.47;;;14.50;99.90;;;;;;5026947;28;20106;-75
2022/10/16 00:38:38;;;;;;;5.55;3.28;;;14.50;99.90;;;;;;5002604;28;20393;-75
2022/10/16 00:41:06;;;;;;;5.20;3.10;;;14.40;99.90;;;;;;5030034;28;20060;-77
2022/10/16 00:43:41;;;;;;;6.00;3.10;;;14.50;99.90;;;;;;5015145;28;20025;-75
2022/10/16 00:46:36;;;;;;;5.47;3.40;;;14.50;99.90;;;;;;5010329;28;20083;-76
2022/10/16 00:49:12;;;;;;;4.90;2.85;;;14.40;99.90;;;;;;5032032;28;20489;-77
2022/10/16 00:51:49;;;;;;;4.82;2.60;;;14.40;99.90;;;;;;5028215;28;20095;-76
2022/10/16 00:54:25;;;;;;;8.15;2.85;;;14.40;99.90;;;;;;5035406;28;20025;-75
2022/10/16 00:56:52;;;;;;;4.60;2.38;;;14.40;99.90;;;;;;5029532;28;20029;-76
2022/10/16 00:59:23;;;;;;;6.78;2.63;;;14.50;99.90;;;;;;5017933;28;20485;-75
2022/10/16 01:01:49;;;;;;;5.72;2.53;;;14.40;99.90;;;;;;5026543;28;20030;-76
2022/10/16 01:04:14;;;;;;;5.50;2.40;;;14.40;99.90;;;;;;5013034;28;20098;-75
2022/10/16 01:06:49;;;;;;;6.10;2.75;;;14.40;99.90;;;;;;5011902;28;20029;-76
2022/10/16 01:09:30;;;;;;;4.38;2.47;;;14.40;99.90;;;;;;5028084;28;20033;-75
2022/10/16 01:12:11;;;;;;;5.82;2.40;;;14.40;99.90;;;;;;5025403;28;20097;-76
2022/10/16 01:14:45;;;;;;;5.93;2.20;;;14.40;99.90;;;;;;5000566;28;20061;-75
2022/10/16 01:17:30;;;;;;;3.00;2.20;;;14.40;99.90;;;;;;5010113;28;20437;-76
2022/10/16 01:20:21;;;;;;;7.60;3.05;;;14.30;99.90;;;;;;5015184;28;20044;-76
2022/10/16 01:23:04;;;;;;;5.68;2.28;;;14.30;99.90;;;;;;5029004;28;20021;-76
2022/10/16 01:26:11;;;;;;;2.45;1.77;;;14.30;99.90;;;;;;5021263;28;20028;-75
2022/10/16 01:29:08;;;;;;;4.65;1.85;;;14.30;99.90;;;;;;5026329;28;20034;-77
2022/10/16 01:31:38;;;;;;;7.07;2.58;;;14.30;99.90;;;;;;5025765;28;20436;-76
2022/10/16 01:34:18;;;;;;;3.28;1.73;;;14.20;99.90;;;;;;5023288;28;20091;-76
2022/10/16 01:37:04;;;;;;;5.00;2.00;;;14.20;99.90;;;;;;5026973;28;20025;-76
2022/10/16 01:39:33;;;;;;;4.72;2.00;;;14.20;99.90;;;;;;5009125;28;20029;-76
2022/10/16 01:42:09;;;;;;;5.15;2.25;;;14.10;99.90;;;;;;5010805;28;20128;-76
2022/10/16 01:44:36;;;;;;;5.57;2.10;;;14.20;99.90;;;;;;5028589;28;20025;-76
2022/10/16 01:47:04;;;;;;;3.40;1.90;;;14.10;99.90;;;;;;5015678;28;20095;-76
2022/10/16 01:49:36;;;;;;;5.28;2.25;;;14.10;99.90;;;;;;5012736;28;20505;-76
2022/10/16 01:52:06;;;;;;;5.88;2.25;;;14.10;99.90;;;;;;5027054;28;20046;-75
2022/10/16 01:54:36;;;;;;;3.08;2.05;;;14.10;99.90;;;;;;5025605;28;20029;-76
2022/10/16 01:57:06;;;;;;;4.70;2.17;;;14.10;99.90;;;;;;5024501;28;20033;-76
2022/10/16 01:59:35;;;;;;;6.00;2.33;;;14.10;99.90;;;;;;5033949;28;20029;-76
2022/10/16 02:02:06;;;;;;;4.28;2.50;;;14.10;99.90;;;;;;5025753;28;20558;-76
2022/10/16 02:04:40;;;;;;;4.97;2.72;;;14.00;99.90;;;;;;5028423;28;20032;-76
2022/10/16 02:07:06;;;;;;;6.63;2.90;;;14.00;99.90;;;;;;5026606;28;20029;-76
2022/10/16 02:09:34;;;;;;;4.03;2.33;;;14.00;99.90;;;;;;5018091;28;20493;-76
2022/10/16 02:12:06;;;;;;;8.00;2.70;;;14.00;99.90;;;;;;5019094;28;20030;-75
2022/10/16 02:14:32;;;;;;;3.72;2.13;;;14.00;99.90;;;;;;5029568;28;20025;-76
2022/10/16 02:16:58;;;;;;;9.18;3.10;;;14.00;99.90;;;;;;5026946;28;20083;-76
2022/10/16 02:19:24;;;;;;;5.55;2.38;;;14.00;99.90;;;;;;5010242;28;20520;-76
2022/10/16 02:22:00;;;;;;;6.95;2.47;;;14.00;99.90;;;;;;5029818;28;20037;-76
2022/10/16 02:24:46;;;;;;;4.22;2.50;;;14.00;99.90;;;;;;5010123;28;20108;-76
2022/10/16 02:27:24;;;;;;;4.22;2.35;;;14.00;99.90;;;;;;5030897;28;20104;-76
2022/10/16 02:29:58;;;;;;;7.22;2.60;;;13.90;99.90;;;;;;5025608;28;20140;-76
2022/10/16 02:32:30;;;;;;;4.35;2.20;;;13.90;99.90;;;;;;5010031;28;20096;-76
2022/10/16 02:34:58;;;;;;;8.18;2.50;;;13.90;99.90;;;;;;5028015;28;20021;-76
2022/10/16 02:37:25;;;;;;;4.15;2.15;;;13.90;99.90;;;;;;5028072;28;20063;-77
2022/10/16 02:39:51;;;;;;;5.03;2.03;;;13.90;99.90;;;;;;5009371;28;20026;-77
2022/10/16 02:42:18;;;;;;;5.80;2.10;;;13.90;99.90;;;;;;5024907;28;20039;-76
2022/10/16 02:44:45;;;;;;;2.65;1.73;;;13.80;99.90;;;;;;5026112;28;20148;-76
2022/10/16 02:47:11;;;;;;;4.25;1.90;;;13.80;99.90;;;;;;4994349;28;20116;-76
2022/10/16 02:49:37;;;;;;;3.80;1.83;;;13.80;99.90;;;;;;5033745;28;20025;-76
2022/10/16 02:52:03;;;;;;;4.45;1.90;;;13.80;99.90;;;;;;5010448;28;20037;-76
2022/10/16 02:54:28;;;;;;;4.82;1.92;;;13.80;99.90;;;;;;5023772;28;20116;-76
2022/10/16 02:56:54;;;;;;;7.78;2.10;;;13.80;99.90;;;;;;5027188;28;20725;-76
2022/10/16 02:59:20;;;;;;;4.90;2.30;;;13.70;99.90;;;;;;5024726;28;20028;-77
2022/10/16 03:01:46;;;;;;;8.07;2.35;;;13.70;99.90;;;;;;5023109;28;20026;-76
2022/10/16 03:04:11;;;;;;;5.03;2.05;;;13.70;99.90;;;;;;5008004;28;20040;-75
2022/10/16 03:06:37;;;;;;;6.22;2.60;;;13.60;99.90;;;;;;5008842;28;20084;-76
2022/10/16 03:09:03;;;;;;;8.35;2.70;;;13.60;99.90;;;;;;5006288;28;20512;-76
2022/10/16 03:11:28;;;;;;;5.68;2.08;;;13.60;99.90;;;;;;5030538;28;20462;-76
2022/10/16 03:13:54;;;;;;;7.22;2.70;;;13.60;99.90;;;;;;5011791;28;20512;-76
2022/10/16 03:16:19;;;;;;;5.03;2.40;;;13.60;99.90;;;;;;5011631;28;20619;-74
2022/10/16 03:18:49;;;;;;;7.15;2.75;;;13.50;99.90;;;;;;5018065;28;20064;-76
2022/10/16 03:21:15;;;;;;;4.63;2.33;;;13.50;99.90;;;;;;5033960;28;20029;-77
2022/10/16 03:23:40;;;;;;;4.20;2.47;;;13.50;99.90;;;;;;5038106;28;20041;-76
2022/10/16 03:26:06;;;;;;;5.22;1.92;;;13.50;99.90;;;;;;5000972;28;20052;-75
2022/10/16 03:28:32;;;;;;;5.05;2.38;;;13.40;99.90;;;;;;5010660;28;20034;-76
2022/10/16 03:30:57;;;;;;;5.03;2.58;;;13.40;99.90;;;;;;5028926;28;20025;-76
2022/10/16 03:33:23;;;;;;;4.60;2.08;;;13.40;99.90;;;;;;5013073;28;20268;-76
2022/10/16 03:35:53;;;;;;;7.75;2.65;;;13.40;99.90;;;;;;5025028;28;20033;-75
2022/10/16 03:38:19;;;;;;;6.03;2.22;;;13.40;99.90;;;;;;5012499;28;20018;-76
2022/10/16 03:40:45;;;;;;;6.45;1.98;;;13.40;99.90;;;;;;5035554;28;20026;-76
2022/10/16 03:43:11;;;;;;;3.67;2.33;;;13.40;99.90;;;;;;5013311;28;20103;-76
2022/10/16 03:45:37;;;;;;;4.10;2.20;;;13.40;99.90;;;;;;5044151;23;20052;-78
2022/10/16 03:48:03;;;;;;;4.45;1.80;;;13.40;99.90;;;;;;5051463;28;20059;-77
2022/10/16 03:50:29;;;;;;;5.43;1.90;;;13.40;99.90;;;;;;5036744;28;20175;-76
2022/10/16 03:52:56;;;;;;;4.07;1.95;;;13.40;99.90;;;;;;5053874;28;20025;-77
2022/10/16 03:55:21;;;;;;;3.92;1.90;;;13.40;99.90;;;;;;5020730;28;20060;-77
2022/10/16 03:57:47;;;;;;;5.57;2.33;;;13.40;99.90;;;;;;5050372;28;20127;-77
2022/10/16 04:00:13;;;;;;;4.07;2.20;;;13.40;99.90;;;;;;5055671;28;20033;-77
2022/10/16 04:02:40;;;;;;;5.20;2.45;;;13.40;99.90;;;;;;5052429;28;20036;-77
2022/10/16 04:05:06;;;;;;;4.18;2.10;;;13.40;99.90;;;;;;5053676;28;20037;-77
2022/10/16 04:07:32;;;;;;;7.20;2.53;;;13.40;99.90;;;;;;5052383;28;20035;-77
2022/10/16 04:09:58;;;;;;;5.72;2.38;;;13.30;99.90;;;;;;5047674;28;20028;-77
2022/10/16 04:12:28;;;;;;;7.22;2.05;;;13.30;99.90;;;;;;5050343;28;20220;-77
2022/10/16 04:14:53;;;;;;;5.38;2.30;;;13.40;99.90;;;;;;5056708;28;20018;-77
2022/10/16 04:17:19;;;;;;;4.22;1.88;;;13.40;99.90;;;;;;5055142;28;20033;-78
2022/10/16 04:19:45;;;;;;;5.15;2.33;;;13.40;99.90;;;;;;5043871;28;20021;-77
2022/10/16 04:22:11;;;;;;;6.07;2.70;;;13.40;99.90;;;;;;5050371;28;20033;-77
2022/10/16 04:24:37;;;;;;;6.63;2.40;;;13.40;99.90;;;;;;5049285;28;20035;-77
2022/10/16 04:27:03;;;;;;;4.90;1.90;;;13.40;99.90;;;;;;5068798;28;20033;-77
2022/10/16 04:29:28;;;;;;;7.03;2.42;;;13.40;99.90;;;;;;5054255;28;20081;-78
2022/10/16 04:31:54;;;;;;;7.13;2.10;;;13.40;99.90;;;;;;5057591;28;20048;-78
2022/10/16 04:34:20;;;;;;;6.40;2.20;;;13.40;99.90;;;;;;5056223;28;20028;-77
2022/10/16 04:36:49;;;;;;;4.20;2.10;;;13.40;99.90;;;;;;5060182;28;20045;-77
2022/10/16 04:39:15;;;;;;;6.18;2.90;;;13.40;99.90;;;;;;5050287;28;20032;-77
2022/10/16 04:41:41;;;;;;;6.43;2.38;;;13.40;99.90;;;;;;5023910;28;20040;-77
2022/10/16 04:44:06;;;;;;;4.88;2.88;;;13.40;99.90;;;;;;5058501;28;20033;-77
2022/10/16 04:46:32;;;;;;;8.43;2.38;;;13.30;99.90;;;;;;5031222;28;20037;-77
2022/10/16 04:48:58;;;;;;;6.03;2.30;;;13.30;99.90;;;;;;5051210;28;20491;-77
2022/10/16 04:51:25;;;;;;;5.85;2.50;;;13.30;99.90;;;;;;5049529;28;20040;-77
2022/10/16 04:53:51;;;;;;;6.22;2.40;;;13.30;99.90;;;;;;5054093;28;20033;-77
2022/10/16 04:56:17;;;;;;;5.50;2.63;;;13.30;99.90;;;;;;5050630;28;21085;-76
2022/10/16 04:58:44;;;;;;;6.57;2.90;;;13.30;99.90;;;;;;5060908;28;20603;-76
2022/10/16 05:01:09;;;;;;;6.22;2.85;;;13.30;99.90;;;;;;5065364;28;20036;-77
2022/10/16 05:03:35;;;;;;;4.95;2.53;;;13.30;99.90;;;;;;5066124;28;20126;-77
2022/10/16 05:06:01;;;;;;;6.60;2.58;;;13.30;99.90;;;;;;5064287;28;20115;-77
2022/10/16 05:08:26;;;;;;;6.07;2.90;;;13.30;99.90;;;;;;5045096;28;20037;-77
2022/10/16 05:10:52;;;;;;;10.05;3.58;;;13.30;99.90;;;;;;5054530;28;20057;-76
2022/10/16 05:13:18;;;;;;;8.68;3.70;;;13.30;99.90;;;;;;5060739;28;20026;-77
2022/10/16 05:15:48;;;;;;;11.15;3.70;;;13.30;99.90;;;;;;5057576;28;20085;-77
2022/10/16 05:18:13;;;;;;;7.53;3.22;;;13.30;99.90;;;;;;5041020;28;20048;-77
2022/10/16 05:20:39;;;;;;;9.43;3.47;;;13.30;99.90;;;;;;5039635;28;20543;-78
2022/10/16 05:23:05;;;;;;;5.97;3.40;;;13.30;99.90;;;;;;5047229;28;20099;-77
2022/10/16 05:25:30;;;;;;;6.82;3.42;;;13.30;99.90;;;;;;5046851;28;20033;-76
2022/10/16 05:27:56;;;;;;;8.40;3.70;;;13.30;99.90;;;;;;5068259;28;20029;-77
2022/10/16 05:30:22;;;;;;;8.65;4.05;;;13.30;99.90;;;;;;5038856;28;21695;-77
2022/10/16 05:32:49;;;;;;;11.35;3.83;;;13.30;99.90;;;;;;5053521;28;20315;-77
2022/10/16 05:35:16;;;;;;;11.77;3.90;;;13.30;99.90;;;;;;5046930;28;20443;-77
2022/10/16 05:37:42;;;;;;;5.55;3.65;;;13.20;99.90;;;;;;5065447;28;20025;-76
2022/10/16 05:40:09;;;;;;;8.80;3.30;;;13.30;99.90;;;;;;5052450;28;20021;-76
2022/10/16 05:42:34;;;;;;;9.35;3.63;;;13.30;99.90;;;;;;5068040;28;20036;-77
2022/10/16 05:45:00;;;;;;;7.47;3.15;;;13.30;99.90;;;;;;5055340;28;20033;-78
2022/10/16 05:47:26;;;;;;;5.15;2.58;;;13.30;99.90;;;;;;5052223;28;20116;-77
2022/10/16 05:49:53;;;;;;;7.68;3.15;;;13.30;99.90;;;;;;5013544;28;20432;-76
2022/10/16 05:52:18;;;;;;;4.00;1.90;;;13.30;99.90;;;;;;5037424;28;20024;-78
2022/10/16 05:54:44;;;;;;;9.38;2.90;;;13.60;99.90;;;;;;5047919;28;20026;-78
2022/10/16 05:57:10;;;;;;;7.68;2.35;;;13.70;99.90;;;;;;5032656;28;20079;-76
2022/10/16 05:59:36;;;;;;;5.00;2.28;;;13.60;99.90;;;;;;5045384;28;20544;-77
2022/10/16 06:02:02;;;;;;;8.10;2.83;;;13.50;99.90;;;;;;5036579;28;20045;-77
2022/10/16 06:04:28;;;;;;;5.63;2.60;;;13.50;99.90;;;;;;5049012;28;20031;-77
2022/10/16 06:07:00;;;;;;;3.55;2.35;;;13.50;99.90;;;;;;5048565;28;20100;-77
2022/10/16 06:09:25;;;;;;;7.10;2.25;;;13.50;99.90;;;;;;5023633;28;20056;-75
2022/10/16 06:11:51;;;;;;;4.35;2.17;;;13.50;99.90;;;;;;5053065;28;20059;-77
2022/10/16 06:14:17;;;;;;;6.22;2.13;;;13.50;99.90;;;;;;5056642;28;20029;-77
2022/10/16 06:16:42;;;;;;;7.75;2.80;;;13.50;99.90;;;;;;5046914;28;20067;-77
2022/10/16 06:19:09;;;;;;;6.13;2.30;;;13.50;99.90;;;;;;5049271;28;20448;-77
2022/10/16 06:21:34;;;;;;;8.25;2.80;;;13.50;99.90;;;;;;5049858;28;20028;-77
2022/10/16 06:24:00;;;;;;;4.40;2.13;;;13.50;99.90;;;;;;5050400;28;20815;-77
2022/10/16 06:26:28;;;;;;;4.50;2.38;;;13.50;99.90;;;;;;5046095;28;20033;-77
2022/10/16 06:28:55;;;;;;;5.15;1.73;;;13.50;99.90;;;;;;5061779;28;20530;-77
2022/10/16 06:31:21;;;;;;;4.25;2.35;;;13.50;99.90;;;;;;5055040;28;20033;-76
2022/10/16 06:33:50;;;;;;;3.45;1.85;;;13.50;99.90;;;;;;5057519;28;20024;-77
2022/10/16 06:36:17;;;;;;;4.82;2.17;;;13.50;99.90;;;;;;5056528;28;20497;-76
2022/10/16 06:38:43;;;;;;;8.88;2.38;;;13.50;99.90;;;;;;5043632;28;20723;-77
2022/10/16 06:41:18;;;;;;;4.43;2.28;;;13.50;99.90;;;;;;5050654;28;20501;-77
2022/10/16 06:43:46;;;;;;;13.05;2.67;;;13.50;99.90;;;;;;5053386;28;20029;-77
2022/10/16 06:46:14;;;;;;;6.53;2.60;;;13.50;99.90;;;;;;5030996;28;20044;-77
2022/10/16 06:48:40;;;;;;;5.38;2.28;;;13.60;99.90;;;;;;5040499;28;20052;-76
2022/10/16 06:51:11;;;;;;;8.35;2.40;;;13.60;99.90;;;;;;5037896;28;20140;-77
2022/10/16 06:53:37;;;;;;;;;;;13.60;99.90;;;;;;5008393;28;20056;-78
2022/10/16 06:56:11;;;;;;;5.40;1.95;;;13.60;99.90;;;;;;5042533;28;19973;-76
2022/10/16 06:58:37;;;;;;;6.10;2.38;;;13.60;99.90;;;;;;5040484;28;20031;-77
2022/10/16 07:01:04;;;;;;;3.83;2.67;;;13.70;99.90;;;;;;5035868;28;20128;-77
2022/10/16 07:03:30;;;;;;;5.00;2.78;;;13.70;99.90;;;;;;5040458;28;20575;-75
2022/10/16 07:05:56;;;;;;;6.70;2.63;;;13.80;99.90;;;;;;5031290;28;20070;-77
2022/10/16 07:08:22;;;;;;;7.47;2.90;;;13.90;99.90;;;;;;5030873;28;20028;-77
2022/10/16 07:10:47;;;;;;;5.45;2.40;;;14.00;99.90;;;;;;5039043;28;20055;-77
2022/10/16 07:13:14;;;;;;;4.65;2.90;;;14.10;99.90;;;;;;5043500;28;20091;-77
2022/10/16 07:15:40;;;;;;;8.65;4.05;;;14.10;99.90;;;;;;5060151;28;20029;-77
2022/10/16 07:18:06;;;;;;;3.83;2.42;;;14.20;99.90;;;;;;5033866;28;20053;-77
2022/10/16 07:20:32;;;;;;;5.25;2.78;;;14.30;99.90;;;;;;5039050;28;20037;-77
2022/10/16 07:22:58;;;;;;;6.05;3.17;;;14.30;99.90;;;;;;5052431;28;20052;-78
2022/10/16 07:25:23;;;;;;;4.65;2.80;;;14.30;99.90;;;;;;5035144;28;20043;-77
2022/10/16 07:27:49;;;;;;;5.60;3.42;;;14.20;99.90;;;;;;5050098;28;20653;-78
2022/10/16 07:30:15;;;;;;;6.90;3.50;;;14.20;99.90;;;;;;5043408;28;20496;-77
2022/10/16 07:32:40;;;;;;;5.88;3.60;;;14.20;99.90;;;;;;5045189;28;20075;-78
2022/10/16 07:35:07;;;;;;;7.22;3.53;;;14.10;99.90;;;;;;5049086;28;20040;-78
2022/10/16 07:37:33;;;;;;;5.90;3.63;;;14.10;99.90;;;;;;5046401;28;20514;-78
2022/10/16 07:39:59;;;;;;;10.18;3.45;;;14.20;99.90;;;;;;5041857;28;20032;-77
2022/10/16 07:42:24;;;;;;;10.05;3.50;;;14.20;99.90;;;;;;5046222;28;20455;-76
2022/10/16 07:44:50;;;;;;;11.50;3.72;;;14.20;99.90;;;;;;5062625;28;20400;-77
2022/10/16 07:47:16;;;;;;;7.60;2.80;;;14.30;99.90;;;;;;5049803;28;20071;-76
2022/10/16 07:49:41;;;;;;;5.35;2.85;;;14.40;99.90;;;;;;5054691;28;20028;-78
2022/10/16 07:52:07;;;;;;;6.10;3.35;;;14.40;99.90;;;;;;5048745;28;20033;-78
2022/10/16 07:54:33;;;;;;;5.47;2.88;;;14.50;99.90;;;;;;5033356;28;20025;-77
2022/10/16 07:56:58;;;;;;;4.18;2.70;;;14.50;99.90;;;;;;5047344;28;20029;-76
2022/10/16 07:59:24;;;;;;;7.38;3.05;;;14.50;99.90;;;;;;5065881;28;20028;-77
2022/10/16 08:01:50;;;;;;;7.97;3.10;;;14.50;99.90;;;;;;5050761;28;20021;-77
2022/10/16 08:04:15;;;;;;;4.25;2.88;;;14.40;99.90;;;;;;5039225;28;20035;-78
2022/10/16 08:06:41;;;;;;;5.38;3.22;;;14.40;99.90;;;;;;5041870;28;20079;-77
2022/10/16 08:09:08;;;;;;;5.82;2.80;;;14.40;99.90;;;;;;5040941;28;20043;-78
2022/10/16 08:11:34;;;;;;;8.73;3.20;;;14.40;99.90;;;;;;5042876;28;20044;-77
2022/10/16 08:14:00;;;;;;;10.82;3.75;;;14.40;99.90;;;;;;5048631;28;20025;-78
2022/10/16 08:16:26;;;;;;;8.02;3.10;;;14.40;99.90;;;;;;5061147;28;20405;-76
2022/10/16 08:18:51;;;;;;;6.88;3.38;;;14.30;99.90;;;;;;5045904;28;20032;-76
2022/10/16 08:21:20;;;;;;;7.80;3.80;;;14.30;99.90;;;;;;5045280;28;21432;-76
2022/10/16 08:23:46;;;;;;;5.93;3.40;;;14.30;99.90;;;;;;5046133;28;20029;-77
2022/10/16 08:26:12;;;;;;;9.00;3.55;;;14.30;99.90;;;;;;5050610;28;20035;-77
2022/10/16 08:28:38;;;;;;;5.40;2.90;;;14.30;99.90;;;;;;5057028;28;20033;-76
2022/10/16 08:31:12;;;;;;;5.65;3.08;;;14.30;99.90;;;;;;5048908;28;20033;-78
2022/10/16 08:33:40;;;;;;;8.23;3.40;;;14.40;99.90;;;;;;5047925;28;20021;-76
2022/10/16 08:36:06;;;;;;;7.10;3.25;;;14.50;99.90;;;;;;5048539;28;20452;-77
2022/10/16 08:38:33;;;;;;;5.32;2.50;;;14.60;99.90;;;;;;5051215;28;20055;-79
2022/10/16 08:41:21;;;;;;;4.90;2.70;;;14.60;99.90;;;;;;5045748;28;20079;-76
2022/10/16 08:44:07;;;;;;;6.57;2.92;;;14.70;99.90;;;;;;5051814;28;20043;-79
2022/10/16 08:46:55;;;;;;;6.63;3.00;;;14.80;99.90;;;;;;5030075;28;20088;-77
2022/10/16 08:49:21;;;;;;;4.78;2.88;;;14.80;99.90;;;;;;5040215;28;20464;-77
2022/10/16 08:51:49;;;;;;;5.15;3.00;;;14.80;99.90;;;;;;5050366;28;20064;-76
2022/10/16 08:54:40;;;;;;;6.80;2.45;;;14.80;99.90;;;;;;5042092;28;20579;-77
2022/10/16 08:57:16;;;;;;;;;;;14.80;99.90;;;;;;5031404;28;20033;-77
2022/10/16 09:00:02;;;;;;;7.45;2.45;;;14.80;99.90;;;;;;5047842;28;19909;-76
2022/10/16 09:02:43;;;;;;;6.47;2.75;;;14.90;99.90;;;;;;4951219;28;20077;-77
2022/10/16 09:05:14;;;;;;;;;;;14.90;99.90;;;;;;4987649;28;20038;-77
2022/10/16 09:08:06;;;;;;;4.70;2.35;;;14.90;99.90;;;;;;4970224;28;20373;-78
2022/10/16 09:10:50;;;;;;;5.38;2.10;;;15.00;99.90;;;;;;4987264;28;20035;-75
2022/10/16 09:13:28;;;;;;;5.55;2.15;;;15.00;99.90;;;;;;4989647;28;20529;-76
2022/10/16 09:16:15;;;;;;;5.25;2.40;;;15.10;99.90;;;;;;4987245;28;20030;-76
2022/10/16 09:19:08;;;;;;;6.85;2.30;;;15.10;99.90;;;;;;4971175;28;20061;-78
2022/10/16 09:21:43;;;;;;;4.25;1.90;;;15.20;99.90;;;;;;4982284;28;20038;-78
2022/10/16 09:24:19;;;;;;;3.75;2.13;;;15.20;99.90;;;;;;4987339;28;20106;-77
2022/10/16 09:26:46;;;;;;;5.30;2.65;;;15.30;99.90;;;;;;4994359;28;20061;-77
2022/10/16 09:29:13;;;;;;;2.95;1.90;;;15.30;99.90;;;;;;4979971;28;20026;-77
2022/10/16 09:31:39;;;;;;;3.80;1.70;;;15.40;99.90;;;;;;4969939;28;20033;-77
2022/10/16 09:34:14;;;;;;;3.38;1.67;;;15.50;99.90;;;;;;4976178;28;20053;-78
2022/10/16 09:36:44;;;;;;;3.13;2.10;;;15.70;99.90;;;;;;4989943;28;20034;-79
2022/10/16 09:39:14;;;;;;;4.38;1.60;;;15.80;99.90;;;;;;4998753;28;20040;-78
2022/10/16 09:41:43;;;;;;;3.47;1.73;;;15.90;99.90;;;;;;5050868;28;20025;-77
2022/10/16 09:44:38;;;;;;;4.50;1.40;;;16.10;99.90;;;;;;5048995;28;20099;-77
2022/10/16 09:47:06;;;;;;;4.05;1.35;;;16.50;99.90;;;;;;5032168;23;20041;-72
2022/10/16 09:49:33;;;;;;;4.05;1.30;;;16.90;99.90;;;;;;5014548;28;20029;-74
2022/10/16 09:52:15;;;;;;;3.70;1.35;;;17.50;99.90;;;;;;5031128;28;20106;-75
2022/10/16 09:54:55;;;;;;;6.68;1.40;;;18.00;99.90;;;;;;5029472;28;20036;-74
2022/10/16 09:57:22;;;;;;;4.20;1.43;;;18.50;99.90;;;;;;5012094;28;20025;-75
2022/10/16 09:59:53;;;;;;;8.57;1.20;;;19.00;99.90;;;;;;5030706;28;20548;-76
2022/10/16 10:02:36;;;;;;;6.20;1.38;;;19.70;99.90;;;;;;5029503;28;20032;-76
2022/10/16 10:05:04;;;;;;;4.63;1.35;;;20.60;99.90;;;;;;5028838;28;20043;-75
2022/10/16 10:07:39;;;;;;;8.95;1.35;;;21.50;99.90;;;;;;5021719;28;20025;-76
2022/10/16 10:10:19;;;;;;;3.47;1.30;;;22.00;99.90;;;;;;5017767;28;20447;-76
2022/10/16 10:12:45;;;;;;;3.08;1.20;;;22.30;99.40;;;;;;5026351;28;20033;-76
2022/10/16 10:15:13;;;;;;;4.75;1.80;;;22.50;98.50;;;;;;5033022;28;20029;-76
2022/10/16 10:17:48;;;;;;;2.72;1.17;;;22.10;98.30;;;;;;5042174;28;22178;-77
2022/10/16 10:20:27;;;;;;;4.05;1.30;;;22.80;97.20;;;;;;5027943;28;20074;-76
2022/10/16 10:22:55;;;;;;;5.97;1.30;;;22.60;96.50;;;;;;5024799;28;20021;-76
2022/10/16 10:25:29;;;;;;;2.97;1.10;;;22.40;96.30;;;;;;5030769;28;20795;-76
2022/10/16 10:28:10;;;;;;;5.97;1.30;;;22.00;97.30;;;;;;5012980;28;20413;-76
2022/10/16 10:31:19;;;;;;;6.32;1.20;;;21.40;97.80;;;;;;5007365;28;20021;-75
2022/10/16 10:33:51;;;;;;;3.60;1.10;;;21.00;99.20;;;;;;4945628;28;20125;-76
2022/10/16 10:36:28;;;;;;;3.70;1.20;;;21.20;99.10;;;;;;5013839;28;21295;-77
2022/10/16 10:39:38;;;;;;;4.93;1.20;;;21.30;99.10;;;;;;5021387;28;20048;-75
2022/10/16 10:42:28;;;;;;;4.20;1.42;;;21.30;98.70;;;;;;5015032;28;20049;-76
2022/10/16 10:45:14;;;;;;;3.13;1.30;;;21.40;98.20;;;;;;5040492;28;20448;-74
2022/10/16 10:47:43;;;;;;;4.88;1.35;;;21.10;98.60;;;;;;5022200;28;20108;-74
2022/10/16 10:50:14;;;;;;;5.00;1.30;;;21.10;98.70;;;;;;5009656;28;20041;-73
2022/10/16 10:52:51;;;;;;;;;;;21.70;97.30;;;;;;5019384;28;20053;-73
2022/10/16 10:55:41;;;;;;;4.25;1.27;;;21.60;96.40;;;;;;5029073;28;19909;-73
2022/10/16 10:58:45;;;;;;;2.03;0.80;;;21.50;97.70;;;;;;5009595;28;20025;-74
2022/10/16 11:01:34;;;;;;;4.72;1.50;;;21.30;97.40;;;;;;5042244;28;20287;-77
2022/10/16 11:04:35;;;;;;;4.70;1.00;;;20.60;98.80;;;;;;5030256;28;20032;-77
2022/10/16 11:07:21;;;;;;;5.20;1.35;;;20.00;99.40;;;;;;4988366;28;20052;-77
2022/10/16 11:09:53;;;;;;;7.35;1.70;;;19.60;99.90;;;;;;5025081;28;20036;-76
2022/10/16 11:12:20;;;;;;;4.07;1.20;;;19.20;99.90;;;;;;5040933;28;20607;-73
2022/10/16 11:14:55;;;;;;;4.18;1.17;;;18.70;99.90;;;;;;5029484;28;20021;-73
2022/10/16 11:17:43;;;;;;;4.15;0.98;;;18.50;99.90;;;;;;5024178;28;20071;-71
2022/10/16 11:20:50;;;;;;;6.53;1.38;;;18.30;99.90;;;;;;5044855;28;20112;-75
2022/10/16 11:23:23;;;;;;;3.35;0.70;;;18.20;99.90;;;;;;4986716;28;20037;-74
2022/10/16 11:25:50;;;;;;;2.90;0.88;;;18.10;99.90;;;;;;5032434;28;20032;-73
2022/10/16 11:28:34;;;;;;;2.47;0.82;;;18.00;99.90;;;;;;5023528;28;21649;-75
2022/10/16 11:31:10;;;;;;;2.28;0.77;;;18.00;99.90;;;;;;5028428;28;20079;-75
2022/10/16 11:33:41;;;;;;;4.72;1.15;;;17.90;99.90;;;;;;5032240;28;20029;-75
2022/10/16 11:36:07;;;;;;;2.80;1.00;;;17.80;99.90;;;;;;5049988;28;20508;-76
2022/10/16 11:38:45;;;;;;;4.93;1.27;;;17.80;99.90;;;;;;5032054;28;20021;-76
2022/10/16 11:41:39;;;;;;;4.43;1.25;;;17.70;99.90;;;;;;5033589;28;20041;-77
2022/10/16 11:44:38;;;;;;;4.13;0.90;;;17.70;99.90;;;;;;5034101;28;20508;-75
2022/10/16 11:47:04;;;;;;;10.35;1.42;;;17.60;99.90;;;;;;5032780;28;20030;-75
2022/10/16 11:49:32;;;;;;;3.45;1.00;;;17.50;99.90;;;;;;5032139;28;20845;-75
2022/10/16 11:52:11;;;;;;;6.00;1.50;;;17.50;99.90;;;;;;5040942;28;20074;-72
2022/10/16 11:55:03;;;;;;;6.25;1.45;;;17.50;99.90;;;;;;5050675;28;20031;-71
2022/10/16 11:57:38;;;;;;;6.78;1.60;;;17.40;99.90;;;;;;5043334;28;20041;-73
2022/10/16 12:00:08;;;;;;;5.75;1.33;;;17.40;99.90;;;;;;5026868;28;20029;-75
2022/10/16 12:03:00;;;;;;;3.90;0.98;;;17.30;99.90;;;;;;5027813;28;20025;-76
2022/10/16 12:05:57;;;;;;;5.68;1.25;;;17.10;99.90;;;;;;5029381;28;20060;-75
2022/10/16 12:08:23;;;;;;;4.65;1.40;;;17.00;99.90;;;;;;5042972;28;20037;-74
2022/10/16 12:10:49;;;;;;;4.10;1.45;;;16.90;99.90;;;;;;5028663;28;20111;-75
2022/10/16 12:13:50;;;;;;;5.68;1.35;;;16.80;99.90;;;;;;5028049;28;20484;-75
2022/10/16 12:16:15;;;;;;;2.67;0.77;;;16.80;99.90;;;;;;4978558;28;20121;-75
2022/10/16 12:18:43;;;;;;;7.30;1.55;;;16.80;99.90;;;;;;5011984;28;20121;-75
2022/10/16 12:21:13;;;;;;;6.57;0.93;;;16.80;99.90;;;;;;5026756;28;20029;-75
2022/10/16 12:23:50;;;;;;;5.47;1.05;;;16.80;99.90;;;;;;5041821;28;20101;-75
2022/10/16 12:26:34;;;;;;;4.57;0.90;;;16.80;99.90;;;;;;5026299;28;20400;-74
2022/10/16 12:29:26;;;;;;;4.72;1.25;;;16.90;99.90;;;;;;5026804;28;20040;-74
2022/10/16 12:31:52;;;;;;;3.83;1.00;;;16.90;99.90;;;;;;5032213;28;20029;-74
2022/10/16 12:34:27;;;;;;;7.25;1.10;;;17.00;99.90;;;;;;5034662;28;20519;-74
2022/10/16 12:36:54;;;;;;;5.55;1.40;;;17.10;99.90;;;;;;5043763;28;20021;-74
2022/10/16 12:39:24;;;;;;;4.80;1.33;;;17.10;99.90;;;;;;5041376;28;20036;-74
2022/10/16 12:42:05;;;;;;;4.97;1.08;;;17.10;99.90;;;;;;5043199;28;20039;-74
2022/10/16 12:44:35;;;;;;;5.60;1.40;;;17.10;99.90;;;;;;5040099;28;20074;-74
2022/10/16 12:47:02;;;;;;;6.53;1.50;;;17.20;99.90;;;;;;5009872;28;20045;-73
2022/10/16 12:49:27;;;;;;;3.63;1.20;;;17.20;99.90;;;;;;5027961;28;20037;-75
2022/10/16 12:51:54;;;;;;;4.70;0.98;;;17.20;99.90;;;;;;5043062;28;20060;-74
2022/10/16 12:54:24;;;;;;;4.68;1.02;;;17.20;99.90;;;;;;5028371;28;20104;-75
2022/10/16 12:57:24;;;;;;;3.55;0.95;;;17.30;99.90;;;;;;5039930;28;20017;-75
2022/10/16 13:00:06;;;;;;;5.88;1.45;;;17.40;99.90;;;;;;5043694;28;20021;-74
2022/10/16 13:02:50;;;;;;;7.22;1.10;;;17.40;99.90;;;;;;5041073;28;20200;-75
2022/10/16 13:05:44;;;;;;;6.40;1.30;;;17.40;99.90;;;;;;5032165;28;20025;-75
2022/10/16 13:08:32;;;;;;;6.22;1.10;;;17.30;99.90;;;;;;5039126;28;20079;-75
2022/10/16 13:11:07;;;;;;;5.63;1.00;;;17.30;99.90;;;;;;5025190;28;20084;-75